Time;durP1;ratioP1;P1;durP2;ratioP2;P2;SDS_P1;SDS_P2;PMS_P1;PMS_P2;Temp;Humidity;BMP_temperature;BMP_pressure;BME280_temperature;BME280_humidity;BME280_pressure;Samples;Min_cycle;Max_cycle;Signal;HPM_P1;HPM_P2
2021/08/04 00:00:27;;;;;;;5.55;3.75;;;9.10;99.90;;;;;;5085275;28;20020;-82
2021/08/04 00:02:53;;;;;;;5.07;3.83;;;9.10;99.90;;;;;;5094466;28;20106;-81
2021/08/04 00:05:20;;;;;;;4.68;3.22;;;9.20;99.90;;;;;;5096000;28;20020;-82
2021/08/04 00:07:45;;;;;;;6.22;4.35;;;9.20;99.90;;;;;;5095903;28;20024;-81
2021/08/04 00:10:12;;;;;;;5.25;3.90;;;9.20;99.90;;;;;;5093435;28;20020;-81
2021/08/04 00:12:38;;;;;;;5.70;4.15;;;9.20;99.90;;;;;;5077432;28;20484;-82
2021/08/04 00:15:04;;;;;;;6.55;4.07;;;9.10;99.90;;;;;;5077669;28;20020;-82
2021/08/04 00:17:30;;;;;;;8.20;3.95;;;9.10;99.90;;;;;;5095561;28;20433;-83
2021/08/04 00:19:55;;;;;;;4.35;3.90;;;9.00;99.90;;;;;;5091963;28;20047;-82
2021/08/04 00:22:21;;;;;;;4.72;3.42;;;9.00;99.90;;;;;;5057221;28;20028;-83
2021/08/04 00:24:47;;;;;;;5.45;4.50;;;9.00;99.90;;;;;;5057302;28;20093;-83
2021/08/04 00:27:12;;;;;;;5.78;4.03;;;8.90;99.90;;;;;;5057403;28;20098;-83
2021/08/04 00:29:38;;;;;;;4.55;3.58;;;9.00;99.90;;;;;;5075221;28;20051;-82
2021/08/04 00:32:04;;;;;;;5.40;4.03;;;8.90;99.90;;;;;;5074855;28;20496;-82
2021/08/04 00:34:29;;;;;;;4.97;4.00;;;8.90;99.90;;;;;;5095365;28;20026;-83
2021/08/04 00:36:55;;;;;;;5.55;4.13;;;8.80;99.90;;;;;;5077032;28;20466;-83
2021/08/04 00:39:20;;;;;;;8.07;4.10;;;8.90;99.90;;;;;;5095350;28;20035;-83
2021/08/04 00:41:46;;;;;;;5.10;3.85;;;8.90;99.90;;;;;;5081583;28;20108;-83
2021/08/04 00:44:11;;;;;;;6.15;4.25;;;8.80;99.90;;;;;;5074977;28;20052;-83
2021/08/04 00:46:42;;;;;;;4.55;4.05;;;8.80;99.90;;;;;;5056747;28;20103;-83
2021/08/04 00:49:09;;;;;;;5.72;4.03;;;8.80;99.90;;;;;;5074903;28;20119;-83
2021/08/04 00:51:34;;;;;;;4.60;3.90;;;8.70;99.90;;;;;;5074836;28;20040;-83
2021/08/04 00:54:03;;;;;;;6.68;3.53;;;8.70;99.90;;;;;;5095063;28;20545;-82
2021/08/04 00:56:29;;;;;;;5.70;4.07;;;8.60;99.90;;;;;;5094932;28;20499;-83
2021/08/04 00:58:55;;;;;;;4.47;3.80;;;8.60;99.90;;;;;;5094759;28;20056;-83
2021/08/04 01:01:22;;;;;;;5.82;3.85;;;8.50;99.90;;;;;;5080513;28;20032;-82
2021/08/04 01:03:55;;;;;;;5.22;4.05;;;8.50;99.90;;;;;;5056655;28;20021;-83
2021/08/04 01:06:44;;;;;;;5.88;4.20;;;8.50;99.90;;;;;;5056616;28;20020;-83
2021/08/04 01:09:12;;;;;;;4.15;3.50;;;8.50;99.90;;;;;;5074530;28;20408;-83
2021/08/04 01:11:45;;;;;;;5.30;3.95;;;8.50;99.90;;;;;;5085222;28;20063;-82
2021/08/04 01:14:17;;;;;;;7.55;3.65;;;8.40;99.90;;;;;;5093375;28;20024;-83
2021/08/04 01:16:45;;;;;;;4.95;3.78;;;8.40;99.90;;;;;;5094519;28;20026;-82
2021/08/04 01:19:16;;;;;;;7.85;4.18;;;8.40;99.90;;;;;;5094643;28;20058;-83
2021/08/04 01:21:48;;;;;;;6.13;3.75;;;8.30;99.90;;;;;;5083025;28;20508;-83
2021/08/04 01:24:27;;;;;;;4.40;3.60;;;8.20;99.90;;;;;;5074133;28;20028;-82
2021/08/04 01:26:54;;;;;;;5.03;3.70;;;8.20;99.90;;;;;;5074169;28;20044;-83
2021/08/04 01:29:24;;;;;;;5.13;3.85;;;8.20;99.90;;;;;;5056138;28;20029;-83
2021/08/04 01:31:53;;;;;;;6.07;3.63;;;8.10;99.90;;;;;;5074106;28;20431;-83
2021/08/04 01:34:20;;;;;;;4.93;3.88;;;8.10;99.90;;;;;;5073939;28;20477;-82
2021/08/04 01:36:46;;;;;;;5.93;4.10;;;8.00;99.90;;;;;;5073930;28;20032;-83
2021/08/04 01:39:14;;;;;;;4.18;3.67;;;8.00;99.90;;;;;;5056045;28;20500;-84
2021/08/04 01:41:41;;;;;;;4.93;4.15;;;8.00;99.90;;;;;;5074293;28;20081;-83
2021/08/04 01:44:07;;;;;;;9.27;3.70;;;8.00;99.90;;;;;;5073808;28;20476;-83
2021/08/04 01:46:34;;;;;;;9.20;3.85;;;8.00;99.90;;;;;;5073732;28;20060;-83
2021/08/04 01:49:02;;;;;;;5.25;3.08;;;7.90;99.90;;;;;;5073685;28;20102;-83
2021/08/04 01:51:28;;;;;;;6.03;3.38;;;7.90;99.90;;;;;;5055366;28;20024;-83
2021/08/04 01:53:55;;;;;;;3.60;2.58;;;7.90;99.90;;;;;;5055763;28;20021;-83
2021/08/04 01:56:20;;;;;;;5.45;3.25;;;7.80;99.90;;;;;;5073476;28;20131;-83
2021/08/04 01:58:46;;;;;;;6.32;4.00;;;7.80;99.90;;;;;;5055598;28;20107;-83
2021/08/04 02:01:12;;;;;;;3.83;2.80;;;7.80;99.90;;;;;;5073471;28;20016;-83
2021/08/04 02:03:38;;;;;;;4.25;3.42;;;7.80;99.90;;;;;;5088192;28;20498;-83
2021/08/04 02:06:13;;;;;;;3.92;3.20;;;7.80;99.90;;;;;;5093732;28;20544;-83
2021/08/04 02:08:52;;;;;;;7.45;4.05;;;7.80;99.90;;;;;;5093647;28;20024;-83
2021/08/04 02:11:42;;;;;;;6.68;3.15;;;7.80;99.90;;;;;;5093306;28;20017;-83
2021/08/04 02:14:20;;;;;;;5.72;3.78;;;7.70;99.90;;;;;;5076694;28;20099;-83
2021/08/04 02:17:03;;;;;;;4.97;3.47;;;7.70;99.90;;;;;;5073230;28;20020;-83
2021/08/04 02:19:37;;;;;;;4.32;3.33;;;7.60;99.90;;;;;;5055389;28;20103;-83
2021/08/04 02:22:24;;;;;;;5.43;3.03;;;7.60;99.90;;;;;;5072902;28;20062;-83
2021/08/04 02:25:03;;;;;;;5.03;3.13;;;7.60;99.90;;;;;;5091688;28;20039;-83
2021/08/04 02:27:29;;;;;;;3.25;2.67;;;7.60;99.90;;;;;;5093259;28;20028;-83
2021/08/04 02:29:57;;;;;;;4.63;3.53;;;7.60;99.90;;;;;;5075053;28;20023;-82
2021/08/04 02:32:23;;;;;;;4.47;3.58;;;7.50;99.90;;;;;;5092924;28;20027;-83
2021/08/04 02:34:49;;;;;;;4.25;3.17;;;7.60;99.90;;;;;;5076352;28;20591;-83
2021/08/04 02:37:14;;;;;;;4.70;3.70;;;7.50;99.90;;;;;;5072795;28;20056;-83
2021/08/04 02:39:40;;;;;;;9.25;4.05;;;7.50;99.90;;;;;;5054859;28;20028;-83
2021/08/04 02:42:06;;;;;;;5.72;3.70;;;7.50;99.90;;;;;;5054556;28;20028;-83
2021/08/04 02:44:32;;;;;;;6.07;4.07;;;7.50;99.90;;;;;;5055245;28;20557;-83
2021/08/04 02:46:58;;;;;;;5.60;4.10;;;7.50;99.90;;;;;;5072560;28;20100;-83
2021/08/04 02:49:23;;;;;;;5.72;4.55;;;7.50;99.90;;;;;;5054579;28;20396;-83
2021/08/04 02:51:49;;;;;;;7.82;4.03;;;7.50;99.90;;;;;;5054334;28;20120;-83
2021/08/04 02:54:18;;;;;;;4.82;3.83;;;7.50;99.90;;;;;;5060095;28;20028;-83
2021/08/04 02:56:44;;;;;;;6.05;4.53;;;7.50;99.90;;;;;;5092614;28;20363;-83
2021/08/04 02:59:10;;;;;;;7.05;4.50;;;7.50;99.90;;;;;;5092653;28;20077;-83
2021/08/04 03:01:35;;;;;;;5.97;4.13;;;7.40;99.90;;;;;;5092472;28;20020;-83
2021/08/04 03:04:01;;;;;;;5.57;4.10;;;7.50;99.90;;;;;;5073113;28;20122;-82
2021/08/04 03:06:26;;;;;;;5.18;4.07;;;7.40;99.90;;;;;;5072260;28;20017;-83
2021/08/04 03:08:53;;;;;;;4.88;3.40;;;7.40;99.90;;;;;;5072207;28;20043;-82
2021/08/04 03:11:18;;;;;;;4.72;3.80;;;7.40;99.90;;;;;;5054072;28;20056;-82
2021/08/04 03:13:44;;;;;;;6.70;3.85;;;7.30;99.90;;;;;;5072076;28;20063;-82
2021/08/04 03:16:10;;;;;;;4.50;3.65;;;7.30;99.90;;;;;;5069714;28;20568;-82
2021/08/04 03:18:35;;;;;;;5.18;3.17;;;7.30;99.90;;;;;;5074195;28;20499;-82
2021/08/04 03:21:01;;;;;;;4.90;3.75;;;7.30;99.90;;;;;;5092249;28;20020;-82
2021/08/04 03:23:26;;;;;;;3.40;2.97;;;7.30;99.90;;;;;;5086582;28;20021;-82
2021/08/04 03:25:52;;;;;;;5.57;3.38;;;7.30;99.90;;;;;;5071965;28;20044;-82
2021/08/04 03:28:18;;;;;;;4.90;3.58;;;7.30;99.90;;;;;;5054039;28;20025;-83
2021/08/04 03:30:43;;;;;;;5.00;3.80;;;7.40;99.90;;;;;;5054057;28;20032;-83
2021/08/04 03:33:09;;;;;;;8.77;4.85;;;7.40;99.90;;;;;;5071487;28;20066;-82
2021/08/04 03:35:35;;;;;;;8.45;5.18;;;7.40;99.90;;;;;;5091777;28;20059;-83
2021/08/04 03:38:00;;;;;;;7.28;5.03;;;7.40;99.90;;;;;;5073433;28;20104;-83
2021/08/04 03:40:26;;;;;;;7.20;4.72;;;7.40;99.90;;;;;;5073992;28;20069;-83
2021/08/04 03:42:51;;;;;;;11.10;5.07;;;7.40;99.90;;;;;;5073719;28;20032;-83
2021/08/04 03:45:17;;;;;;;7.45;5.60;;;7.40;99.90;;;;;;5077885;28;20041;-82
2021/08/04 03:47:42;;;;;;;9.20;4.82;;;7.40;99.90;;;;;;5071633;28;20054;-83
2021/08/04 03:50:09;;;;;;;10.48;5.82;;;7.30;99.90;;;;;;5071733;28;20032;-83
2021/08/04 03:52:35;;;;;;;8.35;5.50;;;7.40;99.90;;;;;;5071479;28;20112;-83
2021/08/04 03:55:00;;;;;;;8.57;5.00;;;7.40;99.90;;;;;;5074038;28;20104;-83
2021/08/04 03:57:26;;;;;;;6.47;4.32;;;7.40;99.90;;;;;;5071559;28;20499;-83
2021/08/04 03:59:52;;;;;;;6.95;4.10;;;7.40;99.90;;;;;;5071611;28;20029;-83
2021/08/04 04:02:17;;;;;;;7.32;4.13;;;7.40;99.90;;;;;;5053389;28;20025;-83
2021/08/04 04:04:43;;;;;;;23.58;5.65;;;7.40;99.90;;;;;;5072152;28;20025;-83
2021/08/04 04:07:09;;;;;;;8.40;4.97;;;7.40;99.90;;;;;;5086645;28;20051;-83
2021/08/04 04:09:36;;;;;;;6.70;4.30;;;7.40;99.90;;;;;;5073632;28;20024;-83
2021/08/04 04:12:02;;;;;;;6.03;4.55;;;7.40;99.90;;;;;;5073263;28;20051;-83
2021/08/04 04:14:27;;;;;;;7.78;4.90;;;7.50;99.90;;;;;;5073569;28;20480;-83
2021/08/04 04:16:53;;;;;;;9.10;4.57;;;7.50;99.90;;;;;;5053874;28;20029;-83
2021/08/04 04:19:18;;;;;;;6.47;4.70;;;7.50;99.90;;;;;;5071434;28;20488;-83
2021/08/04 04:21:44;;;;;;;8.65;4.68;;;7.60;99.90;;;;;;5071192;28;20035;-83
2021/08/04 04:24:10;;;;;;;5.60;4.25;;;7.70;99.90;;;;;;5071347;28;20118;-83
2021/08/04 04:26:35;;;;;;;7.25;4.78;;;7.70;99.90;;;;;;5082916;28;20634;-82
2021/08/04 04:29:01;;;;;;;6.85;4.40;;;7.80;99.90;;;;;;5091517;28;20027;-84
2021/08/04 04:31:26;;;;;;;6.25;4.60;;;7.80;99.90;;;;;;5072056;28;20083;-83
2021/08/04 04:33:52;;;;;;;6.32;5.00;;;7.80;99.90;;;;;;5071303;28;20044;-83
2021/08/04 04:36:17;;;;;;;8.15;5.13;;;7.90;99.90;;;;;;5079581;28;20024;-83
2021/08/04 04:38:43;;;;;;;12.18;7.35;;;7.90;99.90;;;;;;5073385;28;20074;-83
2021/08/04 04:41:08;;;;;;;10.57;6.35;;;8.00;99.90;;;;;;5091279;28;20025;-83
2021/08/04 04:43:36;;;;;;;8.68;6.20;;;8.10;99.90;;;;;;5091331;28;20223;-83
2021/08/04 04:46:02;;;;;;;9.43;6.07;;;8.20;99.90;;;;;;5087469;28;20040;-83
2021/08/04 04:48:28;;;;;;;11.88;6.32;;;8.30;99.90;;;;;;5055039;28;20063;-83
2021/08/04 04:50:53;;;;;;;8.52;5.70;;;8.30;99.90;;;;;;5074820;28;20039;-83
2021/08/04 04:53:19;;;;;;;12.20;7.18;;;8.40;99.90;;;;;;5074506;28;20070;-83
2021/08/04 04:55:44;;;;;;;9.98;6.20;;;8.50;99.90;;;;;;5074800;28;20257;-82
2021/08/04 04:58:10;;;;;;;7.68;5.95;;;8.50;99.90;;;;;;5056924;28;20025;-82
2021/08/04 05:00:35;;;;;;;9.75;6.75;;;8.60;99.90;;;;;;5074633;28;20044;-83
2021/08/04 05:03:01;;;;;;;9.25;6.28;;;8.70;99.90;;;;;;5076890;28;20555;-83
2021/08/04 05:05:26;;;;;;;8.35;6.05;;;8.80;99.90;;;;;;5094913;28;20438;-83
2021/08/04 05:07:52;;;;;;;8.95;6.07;;;8.90;99.90;;;;;;5094798;28;20452;-82
2021/08/04 05:10:17;;;;;;;12.90;6.68;;;9.00;99.90;;;;;;5094675;28;20084;-83
2021/08/04 05:12:43;;;;;;;11.75;6.63;;;9.20;99.90;;;;;;5094500;28;20024;-82
2021/08/04 05:15:09;;;;;;;13.45;6.97;;;9.30;99.90;;;;;;5058860;28;20102;-82
2021/08/04 05:17:34;;;;;;;12.15;7.75;;;9.50;99.90;;;;;;5056441;28;20078;-83
2021/08/04 05:20:00;;;;;;;15.13;8.05;;;9.60;99.90;;;;;;5074403;28;20024;-82
2021/08/04 05:22:25;;;;;;;13.00;8.32;;;9.70;99.90;;;;;;5074080;28;20436;-82
2021/08/04 05:24:51;;;;;;;12.85;8.25;;;9.90;99.90;;;;;;5086049;28;20043;-82
2021/08/04 05:27:17;;;;;;;11.00;7.63;;;10.10;99.90;;;;;;5094413;28;20024;-83
2021/08/04 05:29:42;;;;;;;15.40;10.05;;;10.30;99.90;;;;;;5094361;28;20028;-82
2021/08/04 05:32:08;;;;;;;16.77;9.75;;;10.40;99.90;;;;;;5094029;28;20525;-82
2021/08/04 05:34:34;;;;;;;15.90;8.20;;;10.60;99.90;;;;;;5069096;28;20513;-82
2021/08/04 05:36:59;;;;;;;11.25;8.50;;;10.80;99.90;;;;;;5066165;28;20032;-82
2021/08/04 05:39:25;;;;;;;11.40;8.18;;;10.90;99.90;;;;;;5076070;28;20791;-82
2021/08/04 05:41:50;;;;;;;13.88;8.95;;;11.10;99.90;;;;;;5094035;28;20484;-82
2021/08/04 05:44:16;;;;;;;15.63;9.43;;;11.20;99.90;;;;;;5094127;28;20504;-82
2021/08/04 05:46:41;;;;;;;11.40;7.78;;;11.40;99.90;;;;;;5092343;28;20102;-83
2021/08/04 05:49:07;;;;;;;10.10;7.00;;;11.60;99.90;;;;;;5094090;28;20388;-82
2021/08/04 05:51:32;;;;;;;10.80;8.00;;;11.70;99.90;;;;;;5093723;28;20027;-82
2021/08/04 05:53:58;;;;;;;21.88;9.25;;;11.80;99.90;;;;;;5075813;28;20028;-82
2021/08/04 05:56:24;;;;;;;12.73;7.68;;;12.00;99.90;;;;;;5093839;28;20031;-83
2021/08/04 05:58:49;;;;;;;14.07;8.95;;;12.10;99.90;;;;;;5073960;28;20020;-82
2021/08/04 06:01:15;;;;;;;10.57;7.00;;;12.30;99.90;;;;;;5077013;28;20035;-82
2021/08/04 06:03:40;;;;;;;10.07;6.65;;;12.40;99.90;;;;;;5075299;28;20027;-82
2021/08/04 06:06:06;;;;;;;10.98;7.70;;;12.60;99.90;;;;;;5093505;28;20107;-83
2021/08/04 06:08:31;;;;;;;9.40;6.97;;;12.70;99.90;;;;;;5092587;28;20124;-83
2021/08/04 06:10:57;;;;;;;11.93;7.47;;;12.90;99.90;;;;;;5083624;28;20048;-83
2021/08/04 06:13:23;;;;;;;8.40;6.15;;;13.00;99.90;;;;;;5072957;28;20032;-83
2021/08/04 06:15:49;;;;;;;13.07;7.00;;;13.20;99.90;;;;;;5073095;28;20481;-83
2021/08/04 06:18:15;;;;;;;15.68;7.40;;;13.30;99.90;;;;;;5063361;28;20139;-83
2021/08/04 06:20:41;;;;;;;12.20;8.07;;;13.50;99.90;;;;;;5093344;28;20476;-84
2021/08/04 06:23:06;;;;;;;8.70;6.65;;;13.60;99.90;;;;;;5074818;28;20043;-83
2021/08/04 06:25:32;;;;;;;12.20;6.13;;;13.80;99.90;;;;;;5093059;28;20035;-83
2021/08/04 06:27:57;;;;;;;11.43;6.50;;;14.00;99.90;;;;;;5071475;28;20047;-83
2021/08/04 06:30:23;;;;;;;9.50;5.85;;;14.10;99.90;;;;;;5072717;28;20429;-83
2021/08/04 06:32:49;;;;;;;14.77;7.63;;;14.30;99.90;;;;;;5081779;28;20028;-83
2021/08/04 06:35:14;;;;;;;10.27;6.00;;;14.40;99.90;;;;;;5093072;28;20028;-83
2021/08/04 06:37:40;;;;;;;7.22;5.97;;;14.50;99.90;;;;;;5092844;28;20069;-83
2021/08/04 06:40:06;;;;;;;15.15;7.22;;;14.70;99.90;;;;;;5091235;28;20039;-83
2021/08/04 06:42:31;;;;;;;13.80;5.57;;;14.90;99.90;;;;;;5074632;28;20036;-83
2021/08/04 06:44:57;;;;;;;8.43;4.65;;;15.10;99.90;;;;;;5069373;28;20501;-86
2021/08/04 06:47:22;;;;;;;12.98;5.45;;;15.20;99.90;;;;;;5069634;28;20025;-86
2021/08/04 06:49:48;;;;;;;5.95;3.78;;;15.30;99.90;;;;;;5070240;28;20131;-86
2021/08/04 06:52:13;;;;;;;6.85;3.83;;;15.50;99.90;;;;;;5078244;28;20594;-84
2021/08/04 06:54:39;;;;;;;6.32;3.53;;;15.80;99.90;;;;;;5078265;28;20039;-86
2021/08/04 06:57:05;;;;;;;6.25;3.47;;;16.00;99.90;;;;;;5067710;28;20107;-85
2021/08/04 06:59:30;;;;;;;6.90;2.88;;;16.10;99.90;;;;;;5082348;28;20858;-86
2021/08/04 07:01:56;;;;;;;7.70;3.28;;;16.30;99.90;;;;;;5084377;28;20135;-84
2021/08/04 07:04:21;;;;;;;8.75;3.28;;;16.40;99.90;;;;;;5069565;28;20536;-86
2021/08/04 07:06:55;;;;;;;6.53;3.17;;;16.60;99.90;;;;;;5068972;28;20392;-86
2021/08/04 07:09:21;;;;;;;;;;;16.70;99.90;;;;;;5068379;28;20077;-84
2021/08/04 07:11:47;;;;;;;7.45;2.30;;;16.90;99.90;;;;;;5077142;28;19908;-84
2021/08/04 07:14:12;;;;;;;9.23;2.20;;;17.00;99.90;;;;;;5086170;28;20113;-83
2021/08/04 07:16:38;;;;;;;4.55;1.80;;;17.20;99.90;;;;;;5069200;28;20097;-84
2021/08/04 07:19:03;;;;;;;6.68;1.92;;;17.40;99.90;;;;;;5069156;28;20024;-84
2021/08/04 07:21:29;;;;;;;3.95;1.50;;;17.60;99.90;;;;;;5086184;28;20020;-86
2021/08/04 07:23:54;;;;;;;2.67;1.80;;;17.70;99.90;;;;;;5078835;28;20056;-85
2021/08/04 07:26:20;;;;;;;5.35;2.35;;;17.70;99.90;;;;;;5086742;28;20059;-87
2021/08/04 07:28:46;;;;;;;5.32;1.80;;;17.80;99.90;;;;;;5077301;28;20035;-86
2021/08/04 07:31:12;;;;;;;9.40;1.65;;;17.80;99.90;;;;;;5072006;28;20078;-85
2021/08/04 07:33:38;;;;;;;5.60;1.92;;;18.00;99.90;;;;;;5077292;28;20027;-86
2021/08/04 07:36:05;;;;;;;9.73;2.58;;;18.10;99.90;;;;;;5070180;28;20029;-85
2021/08/04 07:38:31;;;;;;;3.78;1.48;;;18.10;99.90;;;;;;5049790;28;20116;-85
2021/08/04 07:40:58;;;;;;;8.73;1.90;;;18.20;99.90;;;;;;5065335;28;20115;-86
2021/08/04 07:43:24;;;;;;;8.68;1.83;;;18.40;99.90;;;;;;5060222;28;20734;-86
2021/08/04 07:45:50;;;;;;;5.80;2.17;;;18.50;99.90;;;;;;5054266;28;20035;-85
2021/08/04 07:48:15;;;;;;;4.50;2.13;;;18.60;99.90;;;;;;5071429;28;20020;-85
2021/08/04 07:50:41;;;;;;;8.13;1.40;;;18.80;99.90;;;;;;5074167;28;20043;-85
2021/08/04 07:53:06;;;;;;;3.28;1.23;;;19.00;99.90;;;;;;5091469;28;20031;-86
2021/08/04 07:55:32;;;;;;;6.60;1.42;;;19.00;99.90;;;;;;5075811;28;20111;-83
2021/08/04 07:57:58;;;;;;;4.32;1.98;;;19.10;99.90;;;;;;5053566;28;20473;-82
2021/08/04 08:00:23;;;;;;;5.15;1.65;;;19.40;99.90;;;;;;5071552;28;20384;-82
2021/08/04 08:02:49;;;;;;;6.30;1.35;;;19.30;99.90;;;;;;5053486;28;20031;-81
2021/08/04 08:05:14;;;;;;;5.45;1.60;;;19.50;99.90;;;;;;5054081;28;20776;-82
2021/08/04 08:07:48;;;;;;;1.98;1.23;;;19.50;99.90;;;;;;5071477;28;20035;-83
2021/08/04 08:10:14;;;;;;;3.58;1.70;;;19.70;99.90;;;;;;5071453;28;20499;-82
2021/08/04 08:12:39;;;;;;;3.40;1.42;;;19.70;99.90;;;;;;5071119;28;20032;-82
2021/08/04 08:15:05;;;;;;;3.22;1.30;;;19.90;99.90;;;;;;5071631;28;20492;-82
2021/08/04 08:17:31;;;;;;;6.13;1.83;;;19.80;99.90;;;;;;5071398;28;20033;-82
2021/08/04 08:19:56;;;;;;;3.78;1.20;;;19.90;99.90;;;;;;5053322;28;20079;-82
2021/08/04 08:22:22;;;;;;;2.40;1.30;;;20.20;99.90;;;;;;5053543;28;20021;-82
2021/08/04 08:24:48;;;;;;;3.20;1.55;;;20.50;99.90;;;;;;5075205;28;20032;-82
2021/08/04 08:27:13;;;;;;;5.47;1.58;;;20.60;99.90;;;;;;5095417;28;20103;-81
2021/08/04 08:29:39;;;;;;;2.63;1.23;;;20.70;99.90;;;;;;5077434;28;20144;-84
2021/08/04 08:32:05;;;;;;;3.40;1.20;;;20.70;99.90;;;;;;5095184;28;20028;-83
2021/08/04 08:34:31;;;;;;;3.28;1.30;;;20.80;99.90;;;;;;5095360;28;20081;-82
2021/08/04 08:36:56;;;;;;;4.97;1.40;;;20.80;99.90;;;;;;5079817;28;20063;-82
2021/08/04 08:39:22;;;;;;;2.75;1.40;;;21.00;99.90;;;;;;5075099;28;20033;-81
2021/08/04 08:41:48;;;;;;;4.00;1.20;;;21.10;99.90;;;;;;5088052;28;20103;-81
2021/08/04 08:44:14;;;;;;;4.85;1.88;;;21.10;99.90;;;;;;5095298;28;20046;-82
2021/08/04 08:46:40;;;;;;;3.28;1.40;;;20.90;99.90;;;;;;5066756;28;20029;-83
2021/08/04 08:49:06;;;;;;;0.98;0.90;;;20.90;99.90;;;;;;5074899;28;20067;-82
2021/08/04 08:51:32;;;;;;;3.85;2.05;;;20.90;99.90;;;;;;5056733;28;20035;-82
2021/08/04 08:53:58;;;;;;;3.72;2.08;;;21.00;99.90;;;;;;5056602;28;20020;-82
2021/08/04 08:56:24;;;;;;;3.70;1.40;;;21.40;99.90;;;;;;5078993;28;20061;-81
2021/08/04 08:58:52;;;;;;;2.50;1.10;;;21.80;99.90;;;;;;5079822;28;20111;-82
2021/08/04 09:01:18;;;;;;;3.53;1.50;;;21.80;99.90;;;;;;5092858;28;20024;-82
2021/08/04 09:03:44;;;;;;;3.10;1.60;;;21.70;99.90;;;;;;5092747;28;20024;-82
2021/08/04 09:06:09;;;;;;;3.63;1.35;;;21.30;99.90;;;;;;5071341;28;20028;-82
2021/08/04 09:08:37;;;;;;;5.00;1.73;;;21.50;99.90;;;;;;5086906;28;20050;-82
2021/08/04 09:11:17;;;;;;;3.78;2.00;;;22.00;99.90;;;;;;5093530;28;20028;-81
2021/08/04 09:13:46;;;;;;;1.63;1.38;;;22.10;99.90;;;;;;5094549;28;20022;-82
2021/08/04 09:16:19;;;;;;;3.33;1.58;;;21.60;99.90;;;;;;5059217;28;20100;-82
2021/08/04 09:18:47;;;;;;;4.18;1.85;;;21.70;99.90;;;;;;5064445;28;20027;-81
2021/08/04 09:21:16;;;;;;;2.58;1.65;;;21.80;99.90;;;;;;5073366;28;20655;-82
2021/08/04 09:23:53;;;;;;;2.88;1.60;;;21.90;99.90;;;;;;5086567;28;20404;-82
2021/08/04 09:26:26;;;;;;;5.07;1.83;;;22.30;99.90;;;;;;5077540;28;20032;-82
2021/08/04 09:29:12;;;;;;;4.78;1.63;;;22.60;99.90;;;;;;5077838;28;20396;-82
2021/08/04 09:31:40;;;;;;;1.88;1.10;;;23.00;99.90;;;;;;5063995;28;20137;-82
2021/08/04 09:34:30;;;;;;;2.75;1.58;;;23.30;99.90;;;;;;5056581;28;20028;-82
2021/08/04 09:37:09;;;;;;;5.50;1.30;;;24.00;99.90;;;;;;5063273;28;20496;-81
2021/08/04 09:39:59;;;;;;;2.20;1.27;;;24.40;99.90;;;;;;5076151;28;20028;-82
2021/08/04 09:42:41;;;;;;;1.85;1.20;;;24.30;99.90;;;;;;5080503;28;20040;-82
2021/08/04 09:45:07;;;;;;;5.03;1.58;;;24.20;99.90;;;;;;5055593;28;20109;-83
2021/08/04 09:47:33;;;;;;;3.70;1.70;;;23.70;99.90;;;;;;5073503;28;20507;-82
2021/08/04 09:50:03;;;;;;;2.42;1.73;;;23.50;99.90;;;;;;5055757;28;20060;-83
2021/08/04 09:52:32;;;;;;;2.00;1.23;;;23.30;99.90;;;;;;5078222;28;20041;-83
2021/08/04 09:55:13;;;;;;;5.05;1.70;;;22.80;99.90;;;;;;5091167;28;20024;-83
2021/08/04 09:57:44;;;;;;;3.45;1.40;;;22.10;99.90;;;;;;5064694;28;20568;-84
2021/08/04 10:00:12;;;;;;;3.05;1.60;;;21.50;99.90;;;;;;5078248;28;20067;-83
2021/08/04 10:02:40;;;;;;;2.58;1.45;;;21.00;99.90;;;;;;5073059;28;20488;-83
2021/08/04 10:05:26;;;;;;;4.00;1.67;;;20.60;99.90;;;;;;5057094;28;20082;-83
2021/08/04 10:08:10;;;;;;;2.70;1.48;;;20.70;99.90;;;;;;5073358;28;20052;-85
2021/08/04 10:10:45;;;;;;;3.05;1.50;;;20.70;99.90;;;;;;5073229;28;20083;-82
2021/08/04 10:13:18;;;;;;;2.80;1.33;;;20.60;99.90;;;;;;5082622;28;20631;-82
2021/08/04 10:15:45;;;;;;;2.28;1.60;;;20.50;99.90;;;;;;5090696;28;20388;-83
2021/08/04 10:18:17;;;;;;;2.05;1.63;;;20.50;99.90;;;;;;5072679;28;20046;-83
2021/08/04 10:20:47;;;;;;;7.95;1.52;;;20.60;99.90;;;;;;5055473;28;20477;-82
2021/08/04 10:23:18;;;;;;;2.85;1.48;;;20.60;99.90;;;;;;5073051;28;20029;-83
2021/08/04 10:25:44;;;;;;;3.28;1.65;;;20.80;99.90;;;;;;5072858;28;20043;-83
2021/08/04 10:28:11;;;;;;;3.55;1.40;;;21.00;99.90;;;;;;5088108;28;20051;-82
2021/08/04 10:30:37;;;;;;;2.90;1.40;;;21.00;99.90;;;;;;5069853;28;20107;-82
2021/08/04 10:33:04;;;;;;;3.42;1.40;;;21.20;99.90;;;;;;5092864;28;20020;-82
2021/08/04 10:35:30;;;;;;;7.03;1.65;;;21.10;99.90;;;;;;5073184;28;20047;-84
2021/08/04 10:37:57;;;;;;;2.20;1.38;;;21.20;99.90;;;;;;5072916;28;20056;-86
2021/08/04 10:40:27;;;;;;;3.85;1.50;;;21.40;99.90;;;;;;5074518;28;20025;-84
2021/08/04 10:42:53;;;;;;;2.22;1.58;;;21.50;99.90;;;;;;5054626;28;20477;-84
2021/08/04 10:45:26;;;;;;;2.15;1.23;;;21.40;99.90;;;;;;5072458;28;20043;-84
2021/08/04 10:48:12;;;;;;;5.47;1.55;;;21.30;99.90;;;;;;5055825;28;20020;-86
2021/08/04 10:50:38;;;;;;;5.88;1.38;;;21.70;99.90;;;;;;5080747;28;20442;-85
2021/08/04 10:53:06;;;;;;;1.50;1.27;;;22.40;99.90;;;;;;5074400;28;20024;-87
2021/08/04 10:56:04;;;;;;;2.80;1.38;;;23.00;99.90;;;;;;5073851;28;20101;-86
2021/08/04 10:58:29;;;;;;;3.97;1.33;;;23.20;99.90;;;;;;5036546;28;20032;-86
2021/08/04 11:01:24;;;;;;;2.45;1.38;;;22.70;99.90;;;;;;5074428;28;20047;-85
2021/08/04 11:03:49;;;;;;;4.40;1.40;;;22.50;99.90;;;;;;5069925;28;20519;-86
2021/08/04 11:06:15;;;;;;;2.10;1.52;;;23.00;99.90;;;;;;5072255;28;20067;-87
2021/08/04 11:08:46;;;;;;;4.93;1.55;;;23.40;99.90;;;;;;5054323;28;20040;-85
2021/08/04 11:11:50;;;;;;;4.40;1.35;;;24.10;99.90;;;;;;5072681;28;20032;-86
2021/08/04 11:14:35;;;;;;;;;;;24.80;99.90;;;;;;5065816;28;20062;-86
2021/08/04 11:17:00;;;;;;;;;;;25.20;99.90;;;;;;5071118;28;19928;-86
2021/08/04 11:19:33;;;;;;;1.50;1.20;;;25.70;99.90;;;;;;5079901;28;20311;-86
2021/08/04 11:22:16;;;;;;;7.15;1.52;;;25.40;99.90;;;;;;5054763;28;20119;-85
2021/08/04 11:24:55;;;;;;;2.47;1.40;;;25.60;99.90;;;;;;5075033;28;20488;-87
2021/08/04 11:27:24;;;;;;;2.33;1.30;;;25.70;99.90;;;;;;5085249;28;20122;-86
2021/08/04 11:29:51;;;;;;;3.38;1.00;;;25.60;99.90;;;;;;5090599;28;20028;-86
2021/08/04 11:32:25;;;;;;;3.08;1.40;;;25.90;99.90;;;;;;5071459;28;20058;-86
2021/08/04 11:34:51;;;;;;;1.80;1.17;;;26.20;99.90;;;;;;5075185;28;20081;-85
2021/08/04 11:37:18;;;;;;;4.80;1.20;;;26.70;99.90;;;;;;5071898;28;20031;-84
2021/08/04 11:40:00;;;;;;;2.95;1.30;;;27.30;99.90;;;;;;5071730;28;20510;-84
2021/08/04 11:42:29;;;;;;;5.18;1.55;;;27.70;99.90;;;;;;5054982;28;20043;-86
2021/08/04 11:45:11;;;;;;;2.40;1.25;;;27.40;99.90;;;;;;5072060;28;20393;-84
2021/08/04 11:47:37;;;;;;;2.35;1.10;;;27.70;99.90;;;;;;5061651;28;20493;-83
2021/08/04 11:50:06;;;;;;;2.45;1.27;;;27.30;99.90;;;;;;5053725;28;20029;-83
2021/08/04 11:52:33;;;;;;;8.35;1.20;;;26.70;99.90;;;;;;5054577;28;20060;-83
2021/08/04 11:55:05;;;;;;;2.00;1.23;;;25.60;99.90;;;;;;5055496;28;20027;-85
2021/08/04 11:57:46;;;;;;;2.33;1.55;;;24.60;99.90;;;;;;5078152;28;20033;-85
2021/08/04 12:00:24;;;;;;;1.80;1.50;;;24.20;99.90;;;;;;5081284;28;20384;-85
2021/08/04 12:02:50;;;;;;;2.63;1.27;;;24.10;99.90;;;;;;5091679;28;20078;-84
2021/08/04 12:05:18;;;;;;;3.53;1.70;;;24.40;99.90;;;;;;5089333;28;20496;-83
2021/08/04 12:07:44;;;;;;;3.47;1.17;;;24.50;99.90;;;;;;5071413;28;20047;-83
2021/08/04 12:10:19;;;;;;;3.92;1.38;;;24.20;99.90;;;;;;5071571;28;20027;-83
2021/08/04 12:12:50;;;;;;;4.00;1.30;;;24.60;99.90;;;;;;5053251;28;20025;-83
2021/08/04 12:15:15;;;;;;;5.00;1.40;;;25.20;99.90;;;;;;5053299;28;20020;-83
2021/08/04 12:17:42;;;;;;;2.60;1.20;;;25.20;99.90;;;;;;5071771;28;20025;-84
2021/08/04 12:20:21;;;;;;;2.75;1.52;;;25.10;99.90;;;;;;5071398;28;20024;-83
2021/08/04 12:23:22;;;;;;;9.05;1.60;;;24.90;99.90;;;;;;5071150;28;20028;-83
2021/08/04 12:25:58;;;;;;;3.50;1.60;;;24.50;99.90;;;;;;5058746;28;20041;-86
2021/08/04 12:28:29;;;;;;;1.77;1.15;;;24.50;99.90;;;;;;5053393;28;20488;-84
2021/08/04 12:30:56;;;;;;;2.45;1.23;;;24.10;99.90;;;;;;5071304;28;20036;-84
2021/08/04 12:33:23;;;;;;;4.75;1.50;;;24.00;99.90;;;;;;5070996;28;20020;-86
2021/08/04 12:38:29;;;;;;;2.67;1.40;;;25.60;99.90;;;;;;5071240;28;20035;-84
2021/08/04 12:40:56;;;;;;;3.30;1.10;;;26.40;99.90;;;;;;5053214;28;20392;-86
2021/08/04 12:43:24;;;;;;;2.85;1.40;;;26.40;99.90;;;;;;5071022;28;20025;-85
2021/08/04 12:45:52;;;;;;;2.70;1.60;;;26.40;99.90;;;;;;5053167;28;20485;-85
2021/08/04 12:48:34;;;;;;;2.30;1.20;;;26.50;99.90;;;;;;5084906;28;20455;-84
2021/08/04 12:51:00;;;;;;;24.45;2.40;;;27.10;99.90;;;;;;5060838;28;20076;-83
2021/08/04 12:53:31;;;;;;;1.67;1.30;;;27.60;99.90;;;;;;5091049;28;20028;-82
2021/08/04 12:56:05;;;;;;;8.20;1.88;;;27.10;99.90;;;;;;5091402;28;20031;-81
2021/08/04 12:58:53;;;;;;;4.20;1.30;;;27.10;99.90;;;;;;5072599;28;20031;-80